Terminal Aerodrome Forecast
Issued by NWS Denver/Boulder, CO

Home | Current Version | Previous Version | Text Only | Print | Product List | Glossary On
Versions: 1 2 3 4 5 6 7 8 9 10 11 12 13 14 15 16 17 18 19 20 21 22 23 24 25 26 27 28 29 30 31 32 33 34 35 36 37 38
000
FTUS45 KBOU 212331
TAFDEN
TAF
KDEN 212331Z 2200/2306 34017G24KT P6SM VCTS SCT070 BKN100CB BKN220
     FM220030 31013KT P6SM FEW080 BKN120 BKN220
     FM220200 29007KT P6SM FEW080 SCT220
     FM220600 20006KT P6SM FEW090 BKN120
     FM221500 25005KT P6SM FEW100 SCT200
     FM221800 04008KT P6SM SCT100 BKN120
     FM230000 09007KT P6SM SCT100 BKN200=

USA.gov is the U.S. government's official web portal to all federal, state and local government web resources and services.